Terminal Aerodrome Forecast
Issued by NWS

Home | Current Version | Previous Version | Graphics & Text | Print | Product List | Glossary On
Versions: 1 2 3 4 5 6 7 8 9 10 11 12 13 14 15 16 17 18 19 20 21 22 23 24 25 26 27 28 29 30 31 32 33 34 35 36 37 38 39 40 41 42 43 44
000
FTUS43 KLOT 051938 AAB
TAFMDW
TAF AMD
KMDW 051938Z 0520/0618 03010KT 3SM BR BKN007 OVC050
      TEMPO 0520/0522 4SM BR SCT007 BKN012 OVC050
     FM060200 05006KT 2SM BR OVC004
     FM060600 09004KT 1/2SM FG OVC002
     FM061300 11005KT 4SM BR OVC007
     FM061500 20005KT P6SM SCT020 BKN040=

USA.gov is the U.S. government's official web portal to all federal, state and local government web resources and services.